Time;durP1;ratioP1;P1;durP2;ratioP2;P2;SDS_P1;SDS_P2;PMS_P1;PMS_P2;Temp;Humidity;BMP_temperature;BMP_pressure;BME280_temperature;BME280_humidity;BME280_pressure;Samples;Min_cycle;Max_cycle;Signal;HPM_P1;HPM_P2
2023/09/25 00:02:20;;;;;;;3.03;1.10;;;14.60;99.90;;;14.75;100.00;101665.50;5240143;28;20091;-53
2023/09/25 00:04:52;;;;;;;2.72;1.27;;;14.60;99.90;;;14.76;100.00;101665.53;5245784;28;20044;-52
2023/09/25 00:07:25;;;;;;;2.45;1.45;;;14.60;99.90;;;14.74;100.00;101662.00;5244507;28;20415;-51
2023/09/25 00:09:57;;;;;;;2.15;1.20;;;14.60;99.90;;;14.73;100.00;101664.53;5242444;28;20139;-52
2023/09/25 00:12:31;;;;;;;2.80;1.02;;;14.60;99.90;;;14.71;100.00;101664.50;5244161;28;20056;-51
2023/09/25 00:15:07;;;;;;;2.60;1.10;;;14.50;99.90;;;14.70;100.00;101665.34;5239791;28;20074;-53
2023/09/25 00:17:40;;;;;;;2.13;1.85;;;14.50;99.90;;;14.71;100.00;101668.84;5221052;28;20419;-51
2023/09/25 00:20:13;;;;;;;2.90;1.50;;;14.60;99.90;;;14.70;100.00;101664.47;5237990;28;20048;-52
2023/09/25 00:22:46;;;;;;;1.50;1.02;;;14.50;99.90;;;14.69;100.00;101668.81;5239018;28;20056;-51
2023/09/25 00:25:19;;;;;;;1.65;1.05;;;14.50;99.90;;;14.72;100.00;101673.25;5234832;28;20068;-51
2023/09/25 00:27:52;;;;;;;2.33;1.02;;;14.50;99.90;;;14.71;100.00;101672.38;5250676;28;20052;-54
2023/09/25 00:30:25;;;;;;;2.13;1.52;;;14.50;99.90;;;14.73;100.00;101665.44;5243342;28;20201;-51
2023/09/25 00:32:57;;;;;;;1.75;1.13;;;14.50;99.90;;;14.71;100.00;101661.88;5243669;28;20055;-52
2023/09/25 00:35:30;;;;;;;2.72;1.10;;;14.50;99.90;;;14.67;100.00;101662.63;5239111;28;20048;-53
2023/09/25 00:38:03;;;;;;;2.28;1.25;;;14.50;99.90;;;14.60;100.00;101664.16;5243426;28;20048;-51
2023/09/25 00:40:37;;;;;;;2.47;1.13;;;14.40;99.90;;;14.54;100.00;101649.94;5230128;28;20044;-51
2023/09/25 00:43:15;;;;;;;1.63;1.48;;;14.40;99.90;;;14.47;100.00;101655.84;5249741;28;20048;-53
2023/09/25 00:45:49;;;;;;;1.00;0.90;;;14.40;99.90;;;14.43;100.00;101656.56;5225844;28;20056;-51
2023/09/25 00:48:27;;;;;;;2.10;1.30;;;14.30;99.90;;;14.43;100.00;101653.94;5220381;28;20054;-51
2023/09/25 00:51:04;;;;;;;4.25;1.45;;;14.30;99.90;;;14.44;100.00;101655.72;5225932;28;20074;-51
2023/09/25 00:53:40;;;;;;;1.90;1.20;;;14.30;99.90;;;14.39;100.00;101652.94;5253749;28;20080;-51
2023/09/25 00:56:13;;;;;;;1.77;1.50;;;14.30;99.90;;;14.37;100.00;101655.50;5245533;28;20052;-51
2023/09/25 00:58:47;;;;;;;1.70;1.13;;;14.30;99.90;;;14.40;100.00;101649.47;5229841;28;20040;-52
2023/09/25 01:01:20;;;;;;;1.45;1.02;;;14.30;99.90;;;14.41;100.00;101651.28;5230518;28;20060;-51
2023/09/25 01:03:54;;;;;;;2.13;1.27;;;14.30;99.90;;;14.38;100.00;101646.78;5230295;28;20419;-52
2023/09/25 01:06:27;;;;;;;3.25;1.40;;;14.20;99.90;;;14.42;100.00;101652.16;5246762;28;20507;-52
2023/09/25 01:09:00;;;;;;;2.45;1.38;;;14.30;99.90;;;14.43;100.00;101659.19;5247977;28;20530;-51
2023/09/25 01:11:33;;;;;;;2.70;1.33;;;14.30;99.90;;;14.43;100.00;101646.06;5237346;28;20051;-52
2023/09/25 01:14:06;;;;;;;1.35;1.08;;;14.30;99.90;;;14.43;100.00;101654.81;5238221;28;20538;-52
2023/09/25 01:16:39;;;;;;;2.17;1.50;;;14.30;99.90;;;14.43;100.00;101652.19;5242563;28;20063;-52
2023/09/25 01:19:13;;;;;;;1.10;1.00;;;14.30;99.90;;;14.42;100.00;101647.81;5248815;28;20057;-52
2023/09/25 01:21:47;;;;;;;2.72;1.30;;;14.30;99.90;;;14.43;100.00;101651.31;5246592;28;20123;-52
2023/09/25 01:24:20;;;;;;;1.95;1.02;;;14.30;99.90;;;14.43;100.00;101651.31;5233790;28;20460;-53
2023/09/25 01:26:52;;;;;;;1.60;1.08;;;14.30;99.90;;;14.40;100.00;101650.34;5245067;28;20052;-52
2023/09/25 01:29:25;;;;;;;1.80;1.35;;;14.30;99.90;;;14.44;100.00;101653.09;5251638;28;20047;-52
2023/09/25 01:31:57;;;;;;;2.63;1.00;;;14.30;99.90;;;14.43;100.00;101649.56;5230219;28;20537;-52
2023/09/25 01:34:30;;;;;;;1.33;1.20;;;14.30;99.90;;;14.41;100.00;101653.91;5246671;28;20066;-52
2023/09/25 01:37:07;;;;;;;1.42;1.20;;;14.30;99.90;;;14.39;100.00;101642.44;5246668;28;20119;-51
2023/09/25 01:39:41;;;;;;;1.52;1.35;;;14.20;99.90;;;14.41;100.00;101638.16;5231017;28;20442;-52
2023/09/25 01:42:14;;;;;;;1.50;1.40;;;14.30;99.90;;;14.39;100.00;101642.44;5239255;28;20410;-52
2023/09/25 01:44:46;;;;;;;2.38;1.50;;;14.20;99.90;;;14.35;100.00;101645.81;5222967;28;20053;-52
2023/09/25 01:47:19;;;;;;;1.83;1.10;;;14.20;99.90;;;14.36;100.00;101645.88;5228754;28;20045;-52
2023/09/25 01:49:51;;;;;;;2.03;1.42;;;14.20;99.90;;;14.38;100.00;101641.56;5229118;28;20155;-52
2023/09/25 01:52:27;;;;;;;1.45;1.00;;;14.20;99.90;;;14.42;100.00;101646.91;5222744;28;20036;-51
2023/09/25 01:55:00;;;;;;;1.90;1.33;;;14.30;99.90;;;14.39;100.00;101648.56;5246554;28;20521;-51
2023/09/25 01:57:34;;;;;;;1.92;1.20;;;14.20;99.90;;;14.38;100.00;101653.78;5228786;28;20049;-52
2023/09/25 02:00:10;;;;;;;1.42;1.20;;;14.30;99.90;;;14.37;100.00;101655.50;5228561;28;20126;-53
2023/09/25 02:02:44;;;;;;;1.80;1.20;;;14.20;99.90;;;14.40;100.00;101642.47;5246688;28;20056;-51
2023/09/25 02:05:16;;;;;;;1.25;1.02;;;14.30;99.90;;;14.39;100.00;101645.94;5244377;28;20048;-52
2023/09/25 02:07:50;;;;;;;3.00;1.38;;;14.20;99.90;;;14.40;100.00;101645.09;5235315;28;20063;-52
2023/09/25 02:10:23;;;;;;;2.17;1.23;;;14.30;99.90;;;14.38;100.00;101640.66;5223319;28;20101;-52
2023/09/25 02:12:55;;;;;;;1.33;1.02;;;14.20;99.90;;;14.34;100.00;101634.44;5241231;28;20053;-51
2023/09/25 02:15:27;;;;;;;3.03;1.27;;;14.20;99.90;;;14.33;100.00;101637.88;5244547;28;20442;-53
2023/09/25 02:18:00;;;;;;;1.92;1.25;;;14.20;99.90;;;14.33;100.00;101619.53;5228171;28;20406;-52
2023/09/25 02:20:33;;;;;;;1.23;0.85;;;14.20;99.90;;;14.29;100.00;101636.00;5228260;28;20056;-52
2023/09/25 02:23:10;;;;;;;1.10;1.00;;;14.20;99.90;;;14.29;100.00;101627.25;5228084;28;20048;-52
2023/09/25 02:25:42;;;;;;;4.90;1.42;;;14.20;99.90;;;14.27;100.00;101624.56;5244989;28;20044;-51
2023/09/25 02:28:14;;;;;;;1.27;1.17;;;14.10;99.90;;;14.26;100.00;101625.41;5228800;28;20036;-53
2023/09/25 02:30:47;;;;;;;1.50;1.35;;;14.10;99.90;;;14.23;100.00;101625.31;5257768;28;20419;-51
2023/09/25 02:33:19;;;;;;;1.88;0.95;;;14.10;99.90;;;14.19;100.00;101619.91;5236575;28;20048;-53
2023/09/25 02:35:51;;;;;;;1.90;1.02;;;14.10;99.90;;;14.16;100.00;101612.84;5234816;28;20070;-53
2023/09/25 02:38:25;;;;;;;2.67;1.08;;;14.00;99.90;;;14.11;100.00;101611.81;5252959;28;20053;-54
2023/09/25 02:40:58;;;;;;;1.92;1.10;;;14.00;99.90;;;14.08;100.00;101622.16;5227855;28;20041;-52
2023/09/25 02:43:31;;;;;;;1.73;1.02;;;14.00;99.90;;;14.09;100.00;101622.25;5255861;28;20044;-52
2023/09/25 02:46:03;;;;;;;1.52;1.08;;;14.00;99.90;;;14.11;100.00;101630.16;5249825;28;20064;-52
2023/09/25 02:48:35;;;;;;;1.05;1.05;;;14.00;99.90;;;14.10;100.00;101631.00;5228438;28;20044;-51
2023/09/25 02:51:08;;;;;;;1.65;1.35;;;14.00;99.90;;;14.11;100.00;101636.28;5245648;28;20408;-52
2023/09/25 02:53:41;;;;;;;2.05;1.42;;;14.00;99.90;;;14.13;100.00;101639.84;5229958;28;20412;-52
2023/09/25 02:56:14;;;;;;;1.27;1.05;;;14.00;99.90;;;14.14;100.00;101630.25;5252628;28;20164;-51
2023/09/25 02:58:47;;;;;;;1.55;1.00;;;14.00;99.90;;;14.14;100.00;101635.47;5243386;28;20048;-51
2023/09/25 03:01:22;;;;;;;2.47;1.10;;;14.00;99.90;;;14.16;100.00;101639.06;5250797;28;20075;-53
2023/09/25 03:03:55;;;;;;;1.80;1.20;;;14.00;99.90;;;14.14;100.00;101640.72;5243847;28;20060;-53
2023/09/25 03:06:27;;;;;;;1.50;1.10;;;14.00;99.90;;;14.15;100.00;101652.09;5243553;28;20056;-52
2023/09/25 03:09:01;;;;;;;1.70;1.30;;;14.00;99.90;;;14.13;100.00;101659.94;5227050;28;20041;-53
2023/09/25 03:11:33;;;;;;;0.90;0.85;;;14.00;99.90;;;14.10;100.00;101659.84;5227194;28;20506;-52
2023/09/25 03:14:06;;;;;;;0.82;0.82;;;14.00;99.90;;;14.04;100.00;101664.88;5227307;28;20044;-52
2023/09/25 03:16:39;;;;;;;2.15;1.05;;;13.90;99.90;;;13.96;100.00;101672.47;5227286;28;20059;-51
2023/09/25 03:19:12;;;;;;;0.82;0.82;;;13.80;99.90;;;13.87;100.00;101677.38;5246189;28;20135;-53
2023/09/25 03:21:44;;;;;;;1.00;0.95;;;13.70;99.90;;;13.77;100.00;101676.19;5251459;28;20045;-53
2023/09/25 03:24:18;;;;;;;0.93;0.93;;;13.60;99.90;;;13.69;100.00;101667.16;5252973;28;20060;-52
2023/09/25 03:26:51;;;;;;;1.75;1.00;;;13.50;99.90;;;13.64;100.00;101665.19;5229804;28;20047;-51
2023/09/25 03:29:23;;;;;;;1.30;0.90;;;13.50;99.90;;;13.62;100.00;101667.75;5243598;28;20049;-52
2023/09/25 03:31:56;;;;;;;2.45;1.00;;;13.40;99.90;;;13.59;100.00;101672.88;5230946;28;20097;-53
2023/09/25 03:34:29;;;;;;;1.00;1.00;;;13.40;99.90;;;13.54;100.00;101661.34;5238141;28;20465;-51
2023/09/25 03:37:01;;;;;;;1.30;1.20;;;13.40;99.90;;;13.49;100.00;101662.88;5233452;28;20299;-53
2023/09/25 03:39:37;;;;;;;1.00;0.90;;;13.30;99.90;;;13.44;100.00;101664.47;5247210;28;20040;-52
2023/09/25 03:42:10;;;;;;;1.42;0.90;;;13.30;99.90;;;13.38;100.00;101670.38;5250757;28;20040;-51
2023/09/25 03:44:42;;;;;;;0.80;0.75;;;13.20;99.90;;;13.31;100.00;101668.38;5229614;28;20072;-52
2023/09/25 03:47:15;;;;;;;1.67;1.30;;;13.20;99.90;;;13.24;100.00;101671.59;5243061;28;20407;-52
2023/09/25 03:49:47;;;;;;;1.20;1.10;;;13.10;99.90;;;13.15;100.00;101676.44;5228898;28;20066;-51
2023/09/25 03:52:20;;;;;;;2.17;1.00;;;13.00;99.90;;;13.09;100.00;101678.81;5228518;28;20498;-52
2023/09/25 03:54:53;;;;;;;1.58;1.48;;;12.90;99.90;;;12.98;100.00;101678.41;5234254;28;20513;-52
2023/09/25 03:57:29;;;;;;;1.33;1.05;;;12.90;99.90;;;12.92;100.00;101679.06;5240641;28;20507;-51
2023/09/25 04:00:01;;;;;;;1.23;1.02;;;12.80;99.90;;;12.86;100.00;101683.16;5235705;28;20523;-51
2023/09/25 04:02:43;;;;;;;1.77;1.13;;;12.70;99.90;;;12.80;100.00;101698.63;5237649;28;20507;-52
2023/09/25 04:05:16;;;;;;;1.45;1.08;;;12.60;99.90;;;12.74;100.00;101692.28;5232112;28;20041;-53
2023/09/25 04:07:48;;;;;;;1.38;1.08;;;12.60;99.90;;;12.70;100.00;101693.00;5230957;28;20641;-52
2023/09/25 04:10:22;;;;;;;1.48;1.00;;;12.50;99.90;;;12.62;100.00;101691.78;5234481;28;20557;-51
2023/09/25 04:12:55;;;;;;;1.10;0.93;;;12.50;99.90;;;12.56;100.00;101694.16;5242696;28;20105;-48
2023/09/25 04:15:28;;;;;;;3.03;1.00;;;12.50;99.90;;;12.53;100.00;101703.63;5226294;28;20059;-49
2023/09/25 04:18:01;;;;;;;1.08;0.98;;;12.40;99.90;;;12.48;100.00;101706.03;5225941;28;20056;-48
2023/09/25 04:20:33;;;;;;;1.13;1.02;;;12.30;99.90;;;12.47;100.00;101699.03;5222376;28;20040;-52
2023/09/25 04:23:06;;;;;;;1.13;1.02;;;12.30;99.90;;;12.42;100.00;101703.16;5240683;28;20125;-49
2023/09/25 04:25:40;;;;;;;1.67;1.20;;;12.30;99.90;;;12.38;100.00;101699.50;5244223;28;20067;-49
2023/09/25 04:28:14;;;;;;;2.13;1.42;;;12.30;99.90;;;12.35;100.00;101699.41;5230070;28;20625;-49
2023/09/25 04:30:47;;;;;;;1.80;1.23;;;12.20;99.90;;;12.31;100.00;101701.81;5226331;28;20102;-49
2023/09/25 04:33:23;;;;;;;1.70;1.10;;;12.20;99.90;;;12.27;100.00;101699.91;5246385;28;20058;-52
2023/09/25 04:35:58;;;;;;;1.55;1.05;;;12.10;99.90;;;12.25;100.00;101696.31;5242329;28;20052;-48
2023/09/25 04:38:31;;;;;;;1.95;1.15;;;12.10;99.90;;;12.23;100.00;101699.78;5239548;28;20037;-49
2023/09/25 04:41:05;;;;;;;1.67;1.13;;;12.10;99.90;;;12.20;100.00;101710.13;5238148;28;20110;-49
2023/09/25 04:43:38;;;;;;;1.73;1.33;;;12.10;99.90;;;12.18;100.00;101716.97;5228705;28;20582;-50
2023/09/25 04:46:12;;;;;;;1.83;1.63;;;12.00;99.90;;;12.16;100.00;101717.75;5241937;28;20603;-49
2023/09/25 04:48:44;;;;;;;1.67;1.58;;;12.00;99.90;;;12.12;100.00;101716.72;5242860;28;20037;-49
2023/09/25 04:51:17;;;;;;;1.40;1.20;;;12.00;99.90;;;12.08;100.00;101712.19;5226195;28;20056;-49
2023/09/25 04:53:49;;;;;;;1.70;1.27;;;11.90;99.90;;;12.05;100.00;101711.16;5239998;28;20048;-50
2023/09/25 04:56:23;;;;;;;1.77;1.30;;;11.90;99.90;;;12.01;100.00;101702.31;5224507;28;20416;-49
2023/09/25 04:58:57;;;;;;;1.50;1.20;;;11.90;99.90;;;12.02;100.00;101703.19;5225615;28;20048;-50
2023/09/25 05:01:29;;;;;;;2.45;1.30;;;11.90;99.90;;;12.05;100.00;101709.44;5242475;28;20582;-49
2023/09/25 05:04:02;;;;;;;2.45;1.58;;;11.90;99.90;;;12.09;100.00;101711.38;5228534;28;20499;-48
2023/09/25 05:06:34;;;;;;;1.98;1.30;;;11.90;99.90;;;12.13;100.00;101713.28;5245209;28;20079;-48
2023/09/25 05:09:07;;;;;;;1.65;1.17;;;12.00;99.90;;;12.14;100.00;101712.47;5224030;28;20040;-48
2023/09/25 05:11:40;;;;;;;1.55;1.20;;;12.00;99.90;;;12.15;100.00;101711.63;5219831;28;20072;-48
2023/09/25 05:14:13;;;;;;;1.17;1.08;;;12.00;99.90;;;12.18;100.00;101713.47;5238111;28;20053;-49
2023/09/25 05:16:45;;;;;;;0.88;0.88;;;12.00;99.90;;;12.20;100.00;101720.56;5229989;28;20052;-49
2023/09/25 05:19:18;;;;;;;1.55;1.13;;;12.10;99.90;;;12.22;100.00;101723.25;5241038;28;20353;-49
2023/09/25 05:21:50;;;;;;;1.30;1.20;;;12.10;99.90;;;12.24;100.00;101726.81;5243317;28;20060;-50
2023/09/25 05:24:22;;;;;;;1.52;1.20;;;12.10;99.90;;;12.24;100.00;101729.41;5224718;28;20055;-50
2023/09/25 05:26:56;;;;;;;1.23;1.10;;;12.10;99.90;;;12.25;100.00;101715.50;5223812;28;20110;-50
2023/09/25 05:29:31;;;;;;;1.50;1.23;;;12.10;99.90;;;12.27;100.00;101723.44;5240882;28;20036;-49
2023/09/25 05:32:05;;;;;;;1.15;1.05;;;12.10;99.90;;;12.29;100.00;101725.28;5243396;28;20739;-49
2023/09/25 05:34:37;;;;;;;1.17;1.02;;;12.10;99.90;;;12.30;100.00;101724.44;5238173;28;20059;-49
2023/09/25 05:37:10;;;;;;;2.47;1.20;;;12.10;99.90;;;12.32;100.00;101721.91;5242846;28;20135;-49
2023/09/25 05:39:42;;;;;;;1.67;1.30;;;12.20;99.90;;;12.37;100.00;101728.22;5227925;28;20051;-48
2023/09/25 05:42:16;;;;;;;1.33;1.23;;;12.20;99.90;;;12.40;100.00;101716.19;5239440;28;20044;-50
2023/09/25 05:44:48;;;;;;;1.48;1.27;;;12.20;99.90;;;12.46;100.00;101719.06;5231569;28;20152;-49
2023/09/25 05:47:21;;;;;;;3.78;1.40;;;12.30;99.90;;;12.51;100.00;101721.84;5232920;28;20434;-55
2023/09/25 05:49:54;;;;;;;1.65;1.55;;;12.30;99.90;;;12.55;100.00;101715.91;5228410;28;20221;-49
2023/09/25 05:52:26;;;;;;;2.08;1.20;;;12.40;99.90;;;12.60;100.00;101711.78;5228314;28;20048;-50
2023/09/25 05:54:58;;;;;;;1.80;1.08;;;12.40;99.90;;;12.68;100.00;101714.69;5227473;28;20060;-50
2023/09/25 05:57:32;;;;;;;2.17;1.10;;;12.50;99.90;;;12.74;100.00;101723.69;5243739;28;20131;-49
2023/09/25 06:00:12;;;;;;;1.98;1.25;;;12.60;99.90;;;12.82;100.00;101725.72;5248433;28;20511;-48
2023/09/25 06:02:44;;;;;;;1.33;1.05;;;12.60;99.90;;;12.86;100.00;101731.16;5243892;28;20082;-49
2023/09/25 06:05:17;;;;;;;2.50;1.13;;;12.70;99.90;;;12.93;100.00;101724.44;5244589;28;20109;-49
2023/09/25 06:07:49;;;;;;;2.15;1.30;;;12.80;99.90;;;13.00;100.00;101734.31;5228558;28;20052;-49
2023/09/25 06:10:23;;;;;;;1.55;1.10;;;12.80;99.90;;;13.11;100.00;101726.91;5245655;28;20045;-49
2023/09/25 06:12:56;;;;;;;2.08;1.50;;;13.00;99.90;;;13.23;100.00;101727.38;5231132;28;20515;-49
2023/09/25 06:15:30;;;;;;;2.25;1.13;;;13.10;99.90;;;13.45;100.00;101726.50;5244255;28;20049;-49
2023/09/25 06:18:03;;;;;;;1.52;1.42;;;13.20;99.90;;;14.33;100.00;101719.19;5238319;28;20063;-49
2023/09/25 06:20:38;;;;;;;1.48;1.00;;;13.80;99.90;;;15.14;100.00;101728.88;5236307;28;20048;-49
2023/09/25 06:23:10;;;;;;;1.23;1.10;;;14.40;99.90;;;15.68;100.00;101727.00;5232470;28;20056;-48
2023/09/25 06:25:44;;;;;;;0.85;0.85;;;15.00;99.90;;;16.36;100.00;101732.38;5244959;28;20048;-48
2023/09/25 06:28:20;;;;;;;2.33;1.17;;;15.50;99.90;;;16.85;100.00;101730.13;5238136;28;20052;-49
2023/09/25 06:30:52;;;;;;;1.70;1.50;;;16.00;99.90;;;17.63;100.00;101733.63;5246046;28;20055;-49
2023/09/25 06:33:25;;;;;;;1.02;1.02;;;16.70;99.90;;;18.27;97.23;101738.44;5234718;28;20046;-50
2023/09/25 06:35:58;;;;;;;1.42;1.10;;;17.30;99.90;;;18.82;93.90;101740.28;5244451;28;20384;-50
2023/09/25 06:38:30;;;;;;;1.25;1.13;;;17.80;99.90;;;19.77;91.00;101734.63;5234831;28;20413;-49
2023/09/25 06:41:02;;;;;;;1.92;1.10;;;18.50;99.90;;;21.11;86.85;101736.72;5242394;28;20052;-51
2023/09/25 06:43:40;;;;;;;1.10;1.00;;;19.60;99.80;;;22.52;80.75;101745.28;5242734;28;20044;-53
2023/09/25 06:46:12;;;;;;;2.25;0.93;;;20.90;97.40;;;23.56;75.91;101732.72;5243111;28;20082;-49
2023/09/25 06:48:49;;;;;;;2.35;0.70;;;21.90;95.00;;;24.05;73.69;101735.16;5241453;28;20032;-49
2023/09/25 06:51:22;;;;;;;1.00;0.90;;;22.60;93.00;;;24.81;71.02;101733.72;5242961;28;20466;-50
2023/09/25 06:53:55;;;;;;;1.23;1.10;;;23.30;91.20;;;25.22;69.30;101737.78;5228217;28;20427;-48
2023/09/25 06:56:27;;;;;;;1.23;1.00;;;23.80;88.80;;;25.50;67.64;101741.94;5240470;28;20435;-51
2023/09/25 06:59:02;;;;;;;0.98;0.73;;;24.20;85.70;;;25.23;66.99;101748.44;5233670;28;20044;-51
2023/09/25 07:01:37;;;;;;;1.33;0.80;;;24.20;83.10;;;24.48;68.47;101745.56;5236155;28;20579;-49
2023/09/25 07:04:09;;;;;;;1.15;0.90;;;23.80;82.90;;;23.99;70.02;101740.50;5236812;28;20053;-52
2023/09/25 07:06:42;;;;;;;1.52;0.90;;;23.40;83.50;;;23.45;70.66;101743.38;5240696;28;20044;-49
2023/09/25 07:09:14;;;;;;;1.80;0.95;;;22.90;83.80;;;23.17;71.22;101745.25;5227533;28;20049;-51
2023/09/25 07:11:47;;;;;;;1.65;0.80;;;22.60;84.20;;;22.90;72.05;101746.19;5241672;28;20056;-50
2023/09/25 07:14:21;;;;;;;2.35;1.00;;;22.40;85.00;;;22.91;72.63;101745.28;5243252;28;20044;-52
2023/09/25 07:16:54;;;;;;;1.08;0.80;;;22.20;85.80;;;22.40;72.73;101747.03;5236609;28;20655;-58
2023/09/25 07:19:26;;;;;;;1.20;0.98;;;21.90;85.00;;;22.17;73.83;101733.72;5245517;28;20048;-51
2023/09/25 07:22:01;;;;;;;2.00;1.00;;;21.70;86.10;;;22.17;73.99;101735.50;5242558;28;20064;-48
2023/09/25 07:24:34;;;;;;;2.03;1.10;;;21.70;86.50;;;22.10;74.19;101731.03;5223944;28;20044;-48
2023/09/25 07:27:06;;;;;;;1.48;1.10;;;21.60;86.60;;;22.06;74.15;101734.53;5224428;28;20333;-48
2023/09/25 07:29:43;;;;;;;1.42;1.00;;;21.60;86.30;;;21.93;73.90;101745.13;5242699;28;20503;-48
2023/09/25 07:32:17;;;;;;;1.60;1.08;;;21.50;86.00;;;21.33;74.66;101741.34;5239019;28;20052;-48
2023/09/25 07:34:49;;;;;;;1.58;0.90;;;21.00;86.20;;;21.23;76.29;101734.16;5222874;28;20048;-48
2023/09/25 07:37:21;;;;;;;1.60;0.90;;;20.90;87.90;;;21.44;76.20;101729.88;5242696;28;20044;-48
2023/09/25 07:39:54;;;;;;;1.77;0.80;;;20.90;88.50;;;21.51;75.59;101729.03;5242640;28;20041;-48
2023/09/25 07:42:26;;;;;;;1.20;1.00;;;20.90;87.80;;;21.68;75.15;101730.00;5239768;28;20147;-49
2023/09/25 07:45:00;;;;;;;0.88;0.73;;;21.00;87.90;;;21.77;74.31;101731.78;5240678;28;20072;-47
2023/09/25 07:47:32;;;;;;;1.95;0.63;;;21.10;87.00;;;21.77;74.61;101726.47;5223987;28;20135;-46
2023/09/25 07:50:10;;;;;;;2.08;0.88;;;21.00;87.20;;;21.82;74.50;101725.63;5243571;28;20048;-46
2023/09/25 07:52:43;;;;;;;1.55;0.73;;;21.00;87.50;;;22.09;73.97;101719.53;5239255;28;20052;-47
2023/09/25 07:55:15;;;;;;;1.25;0.82;;;21.10;87.40;;;22.44;72.79;101727.56;5222704;28;20594;-47
2023/09/25 07:57:49;;;;;;;1.60;0.80;;;21.40;86.50;;;22.70;71.92;101732.00;5240837;28;20052;-49
2023/09/25 08:00:24;;;;;;;2.88;1.10;;;21.50;85.90;;;22.93;71.41;101724.91;5257199;28;20048;-50
2023/09/25 08:02:57;;;;;;;2.40;1.10;;;21.60;85.50;;;23.07;70.54;101723.97;5248126;28;20415;-50
2023/09/25 08:05:29;;;;;;;2.13;0.90;;;21.80;84.60;;;23.35;69.36;101715.06;5240367;28;20503;-49
2023/09/25 08:08:02;;;;;;;2.10;1.10;;;22.00;83.30;;;23.78;69.20;101714.91;5244954;28;20072;-49
2023/09/25 08:10:34;;;;;;;1.88;0.90;;;22.40;83.70;;;24.47;67.08;101718.03;5253030;28;20041;-49
2023/09/25 08:13:07;;;;;;;1.55;0.70;;;22.90;81.90;;;24.67;65.94;101709.88;5232146;28;20051;-49
2023/09/25 08:15:41;;;;;;;1.92;0.90;;;23.10;80.50;;;25.02;64.64;101712.19;5226103;28;20048;-50
2023/09/25 08:18:14;;;;;;;1.13;0.80;;;23.40;79.10;;;25.35;63.67;101710.06;5259600;28;20048;-49
2023/09/25 08:20:46;;;;;;;2.35;0.90;;;23.60;78.10;;;25.81;63.38;101728.19;5235462;28;20523;-49
2023/09/25 08:23:18;;;;;;;1.55;0.80;;;24.00;77.80;;;26.13;61.99;101723.28;5237424;28;20045;-50
2023/09/25 08:25:51;;;;;;;0.98;0.80;;;24.20;76.30;;;26.12;62.09;101724.19;5250587;28;20041;-50
2023/09/25 08:28:24;;;;;;;6.93;1.52;;;24.30;76.10;;;26.83;61.54;101723.97;5248854;28;20052;-50
2023/09/25 08:30:58;;;;;;;2.72;1.10;;;24.80;76.10;;;26.81;59.61;101723.13;5227487;28;20044;-49
2023/09/25 08:33:30;;;;;;;0.82;0.80;;;24.90;73.30;;;27.10;59.29;101733.28;5243027;28;20048;-50
2023/09/25 08:36:02;;;;;;;0.98;0.88;;;25.20;73.30;;;27.13;59.05;101735.06;5230712;28;20048;-50
2023/09/25 08:38:35;;;;;;;1.02;0.90;;;25.30;72.60;;;26.99;59.75;101727.22;5229712;28;20048;-49
2023/09/25 08:41:07;;;;;;;1.35;0.73;;;25.20;73.00;;;27.09;59.49;101739.56;5258454;28;20350;-49
2023/09/25 08:43:44;;;;;;;1.33;0.82;;;25.30;72.90;;;27.23;59.23;101721.44;5260033;28;20060;-50
2023/09/25 08:46:19;;;;;;;1.35;1.10;;;25.50;72.30;;;26.98;59.04;101726.34;5222311;28;20142;-49
2023/09/25 08:48:56;;;;;;;1.70;0.82;;;25.40;71.50;;;26.68;59.64;101721.56;5222470;28;20049;-49
2023/09/25 08:51:34;;;;;;;3.05;1.05;;;25.30;71.60;;;26.59;60.66;101725.25;5254294;28;20056;-50
2023/09/25 08:54:10;;;;;;;2.63;1.00;;;25.30;72.20;;;26.18;60.55;101721.44;5251467;28;20067;-49
2023/09/25 08:56:45;;;;;;;1.52;0.90;;;25.10;71.50;;;25.87;61.60;101714.75;5242642;28;20133;-50
2023/09/25 08:59:17;;;;;;;;;;;24.90;72.20;;;25.52;62.63;101705.41;5226504;28;20056;-48
2023/09/25 09:01:51;;;;;;;1.55;0.80;;;24.70;72.80;;;25.16;62.21;101696.94;5242648;28;20417;-50
2023/09/25 09:04:24;;;;;;;1.85;0.80;;;24.40;72.10;;;24.94;63.56;101699.84;5254983;28;20049;-49
2023/09/25 09:06:56;;;;;;;2.33;1.15;;;24.20;73.20;;;24.70;63.98;101698.28;5225991;28;20630;-50
2023/09/25 09:09:29;;;;;;;1.75;1.13;;;24.00;73.80;;;24.23;64.27;101691.53;5246238;28;20060;-49
2023/09/25 09:12:02;;;;;;;1.85;1.13;;;23.70;73.50;;;23.93;65.37;101697.94;5235472;28;20059;-49
2023/09/25 09:14:37;;;;;;;1.50;0.80;;;23.40;74.50;;;23.62;66.50;101697.25;5246810;28;20510;-48
2023/09/25 09:17:12;;;;;;;1.40;1.02;;;23.20;75.40;;;23.52;67.51;101699.91;5230727;28;20495;-50
2023/09/25 09:19:53;;;;;;;2.03;1.30;;;23.00;76.40;;;23.63;67.45;101699.00;5249985;28;20052;-49
2023/09/25 09:22:26;;;;;;;;;;;23.00;76.90;;;23.76;67.49;101700.72;5230818;28;20059;-51
2023/09/25 09:25:01;;;;;;;2.88;1.10;;;23.10;77.10;;;23.78;67.32;101704.25;5245713;28;19927;-56
2023/09/25 09:27:34;;;;;;;2.20;1.17;;;23.10;76.60;;;23.93;67.22;101698.84;5227185;28;20122;-51
2023/09/25 09:30:22;;;;;;;2.55;0.90;;;23.20;76.90;;;24.03;65.92;101703.22;5222517;28;20032;-50
2023/09/25 09:32:57;;;;;;;1.98;1.10;;;23.30;75.60;;;24.16;65.40;101700.47;5231813;28;20402;-50
2023/09/25 09:35:30;;;;;;;3.88;1.33;;;23.40;75.20;;;24.26;65.20;101702.19;5228190;28;20056;-50
2023/09/25 09:38:03;;;;;;;1.92;1.00;;;23.50;75.20;;;24.26;64.61;101702.19;5240827;28;20143;-50
2023/09/25 09:40:36;;;;;;;1.95;1.08;;;23.50;74.30;;;24.16;64.44;101696.03;5241873;28;20044;-54
2023/09/25 09:43:10;;;;;;;3.05;0.90;;;23.50;74.00;;;23.98;64.71;101697.03;5237486;28;20127;-50
2023/09/25 09:45:44;;;;;;;2.63;1.00;;;23.40;74.00;;;23.88;65.04;101683.78;5226149;28;20508;-50
2023/09/25 09:48:21;;;;;;;2.67;0.98;;;23.30;74.50;;;23.86;64.94;101689.09;5239306;28;20044;-49
2023/09/25 09:51:00;;;;;;;2.80;0.93;;;23.20;74.20;;;23.80;65.38;101682.06;5247993;28;20102;-50
2023/09/25 09:53:38;;;;;;;2.70;1.05;;;23.20;74.50;;;23.66;64.32;101678.56;5243754;28;20527;-49
2023/09/25 09:56:16;;;;;;;2.38;1.02;;;23.10;73.50;;;23.44;65.19;101671.56;5255217;28;20109;-58
2023/09/25 09:58:50;;;;;;;2.22;1.00;;;22.90;74.20;;;23.40;66.18;101676.00;5244196;28;20041;-58
2023/09/25 10:01:24;;;;;;;1.45;0.77;;;22.90;75.10;;;23.46;65.98;101683.06;5237812;28;20049;-57
2023/09/25 10:03:58;;;;;;;2.55;0.80;;;22.90;75.20;;;23.53;66.09;101671.50;5242193;28;20052;-58
2023/09/25 10:06:30;;;;;;;1.00;0.73;;;22.90;75.40;;;23.64;66.79;101659.06;5243490;28;20051;-57
2023/09/25 10:09:10;;;;;;;2.17;0.90;;;23.00;76.00;;;23.83;66.05;101657.19;5243893;28;20090;-53
2023/09/25 10:11:43;;;;;;;1.50;0.93;;;23.10;75.70;;;24.02;66.04;101661.50;5242084;28;20036;-55
2023/09/25 10:14:22;;;;;;;1.75;1.00;;;23.30;75.70;;;24.18;65.13;101661.38;5220097;28;20086;-57
2023/09/25 10:17:00;;;;;;;1.95;0.98;;;23.40;75.00;;;24.31;65.74;101661.25;5225677;28;20722;-56
2023/09/25 10:19:54;;;;;;;1.38;0.90;;;23.50;75.40;;;24.45;64.26;101655.88;5239425;28;20072;-56
2023/09/25 10:22:30;;;;;;;1.70;0.98;;;23.70;74.00;;;24.50;63.00;101654.03;5237262;28;20511;-56
2023/09/25 10:25:11;;;;;;;1.80;0.90;;;23.70;72.90;;;24.51;63.50;101650.47;5225273;28;20045;-56
2023/09/25 10:27:45;;;;;;;1.30;0.80;;;23.80;73.00;;;24.68;63.85;101657.44;5242451;28;20039;-56
2023/09/25 10:30:18;;;;;;;;;;;23.90;73.80;;;24.75;63.39;101648.47;5237947;28;20754;-56
2023/09/25 10:32:53;;;;;;;3.80;1.10;;;24.00;73.10;;;24.74;61.91;101646.69;5242551;28;20272;-56
2023/09/25 10:35:39;;;;;;;;;;;24.00;71.70;;;24.80;62.27;101650.19;5243198;28;20427;-58
2023/09/25 10:38:22;;;;;;;1.98;0.95;;;24.10;72.00;;;24.99;62.82;101652.66;5242057;28;19924;-49